Time;durP1;ratioP1;P1;durP2;ratioP2;P2;SDS_P1;SDS_P2;PMS_P1;PMS_P2;Temp;Humidity;BMP_temperature;BMP_pressure;BME280_temperature;BME280_humidity;BME280_pressure;Samples;Min_cycle;Max_cycle;Signal;HPM_P1;HPM_P2
2023/09/22 00:00:18;;;;;;;10.55;5.25;;;12.90;99.90;;;;;;6170326;22;88234;-74
2023/09/22 00:02:45;;;;;;;11.13;6.22;;;12.90;99.90;;;;;;6170471;22;88408;-74
2023/09/22 00:05:14;;;;;;;8.07;5.65;;;12.90;99.90;;;;;;6169196;22;87929;-74
2023/09/22 00:07:43;;;;;;;10.13;5.28;;;12.90;99.90;;;;;;6169555;22;87533;-74
2023/09/22 00:10:09;;;;;;;10.75;5.78;;;12.80;99.90;;;;;;6169654;22;87984;-74
2023/09/22 00:12:35;;;;;;;11.25;6.28;;;12.80;99.90;;;;;;6170653;22;87928;-74
2023/09/22 00:15:01;;;;;;;8.50;4.82;;;12.80;99.90;;;;;;6167491;22;88552;-75
2023/09/22 00:17:27;;;;;;;8.27;4.05;;;12.80;99.90;;;;;;6169482;22;88590;-74
2023/09/22 00:19:53;;;;;;;6.55;3.80;;;12.80;99.90;;;;;;6170445;22;87593;-74
2023/09/22 00:22:20;;;;;;;9.18;4.30;;;12.80;99.90;;;;;;6170146;22;87644;-75
2023/09/22 00:24:45;;;;;;;8.15;3.42;;;12.70;99.90;;;;;;6169538;22;90559;-75
2023/09/22 00:27:11;;;;;;;8.38;3.17;;;12.70;99.90;;;;;;6169042;22;88734;-74
2023/09/22 00:29:37;;;;;;;9.43;3.33;;;12.70;99.90;;;;;;6166380;22;91099;-75
2023/09/22 00:32:05;;;;;;;7.00;2.92;;;12.70;99.90;;;;;;6170419;22;87091;-74
2023/09/22 00:34:33;;;;;;;6.68;3.10;;;12.70;99.90;;;;;;6168680;22;87668;-74
2023/09/22 00:36:59;;;;;;;5.72;2.65;;;12.70;99.90;;;;;;6169956;22;88581;-74
2023/09/22 00:39:24;;;;;;;9.30;3.72;;;12.70;99.90;;;;;;6192104;22;91417;-75
2023/09/22 00:41:54;;;;;;;5.75;2.50;;;12.80;99.90;;;;;;6169092;22;87062;-73
2023/09/22 00:44:19;;;;;;;10.27;2.88;;;12.70;99.90;;;;;;6170029;22;87542;-74
2023/09/22 00:46:45;;;;;;;7.93;3.38;;;12.70;99.90;;;;;;6169788;22;88102;-74
2023/09/22 00:49:12;;;;;;;9.70;3.10;;;12.70;99.90;;;;;;6170078;22;87720;-74
2023/09/22 00:51:39;;;;;;;6.88;2.58;;;12.80;99.90;;;;;;6170176;22;87641;-74
2023/09/22 00:54:05;;;;;;;11.27;3.28;;;12.80;99.90;;;;;;6193174;22;90523;-74
2023/09/22 00:56:31;;;;;;;4.80;3.15;;;12.80;99.90;;;;;;6168016;22;90791;-75
2023/09/22 00:58:57;;;;;;;9.15;3.25;;;12.80;99.90;;;;;;6168926;22;88240;-75
2023/09/22 01:01:41;;;;;;;4.55;2.90;;;12.80;99.90;;;;;;6193412;22;87617;-74
2023/09/22 01:04:07;;;;;;;5.97;3.25;;;12.80;99.90;;;;;;6166135;22;88945;-75
2023/09/22 01:06:32;;;;;;;5.32;2.80;;;12.80;99.90;;;;;;6170063;22;88007;-74
2023/09/22 01:09:05;;;;;;;10.68;3.05;;;12.80;99.90;;;;;;6171150;22;88170;-74
2023/09/22 01:11:34;;;;;;;6.30;2.53;;;12.80;99.90;;;;;;6170605;22;88076;-74
2023/09/22 01:13:59;;;;;;;5.40;2.80;;;12.90;99.90;;;;;;6170336;22;87907;-74
2023/09/22 01:16:29;;;;;;;9.23;2.55;;;12.80;99.90;;;;;;6169114;22;91058;-75
2023/09/22 01:18:57;;;;;;;8.45;2.78;;;12.90;99.90;;;;;;6196068;22;91007;-74
2023/09/22 01:21:30;;;;;;;5.13;2.85;;;12.90;99.90;;;;;;6172628;22;86919;-74
2023/09/22 01:23:58;;;;;;;5.18;2.85;;;12.90;99.90;;;;;;6170911;22;87656;-74
2023/09/22 01:26:24;;;;;;;7.25;2.78;;;12.90;99.90;;;;;;6170978;22;88033;-74
2023/09/22 01:28:49;;;;;;;7.55;2.95;;;13.00;99.90;;;;;;6169010;22;88312;-74
2023/09/22 01:31:16;;;;;;;6.90;2.42;;;13.00;99.90;;;;;;6171181;22;88031;-74
2023/09/22 01:33:42;;;;;;;5.78;2.35;;;13.10;99.90;;;;;;6171365;22;88155;-74
2023/09/22 01:36:08;;;;;;;6.13;2.10;;;13.10;99.90;;;;;;6169724;22;91792;-74
2023/09/22 01:38:33;;;;;;;6.30;2.20;;;13.10;99.90;;;;;;6167993;22;91115;-74
2023/09/22 01:40:59;;;;;;;9.95;2.45;;;13.20;99.90;;;;;;6164597;22;87715;-74
2023/09/22 01:43:25;;;;;;;7.65;2.22;;;13.20;99.90;;;;;;6168481;22;88957;-74
2023/09/22 01:45:51;;;;;;;6.75;2.65;;;13.30;99.90;;;;;;6196352;22;90804;-74
2023/09/22 01:48:17;;;;;;;6.40;2.30;;;13.30;99.90;;;;;;6170458;22;88058;-74
2023/09/22 01:50:42;;;;;;;7.55;2.70;;;13.30;99.90;;;;;;6170724;22;87587;-74
2023/09/22 01:53:10;;;;;;;6.15;2.35;;;13.30;99.90;;;;;;6169694;22;88862;-74
2023/09/22 01:55:36;;;;;;;8.30;2.10;;;13.40;99.90;;;;;;6170374;22;90829;-74
2023/09/22 01:58:04;;;;;;;6.82;1.98;;;13.30;99.90;;;;;;6169101;22;90862;-73
2023/09/22 02:00:31;;;;;;;4.75;2.00;;;13.40;99.90;;;;;;6171159;22;87471;-74
2023/09/22 02:02:57;;;;;;;8.45;3.50;;;13.40;99.90;;;;;;6171151;22;87797;-74
2023/09/22 02:05:23;;;;;;;6.57;2.20;;;13.40;99.90;;;;;;6170141;22;87842;-74
2023/09/22 02:07:49;;;;;;;8.32;2.00;;;13.40;99.90;;;;;;6171492;22;88818;-74
2023/09/22 02:10:15;;;;;;;7.28;1.70;;;13.40;99.90;;;;;;6171666;22;86783;-74
2023/09/22 02:12:42;;;;;;;3.78;1.67;;;13.40;99.90;;;;;;6171364;22;87292;-74
2023/09/22 02:15:11;;;;;;;4.75;1.42;;;13.40;99.90;;;;;;6171299;22;87579;-74
2023/09/22 02:17:41;;;;;;;5.43;1.75;;;13.40;99.90;;;;;;6170039;22;88614;-74
2023/09/22 02:22:45;;;;;;;7.38;1.77;;;13.40;99.90;;;;;;6170478;22;87446;-74
2023/09/22 02:25:15;;;;;;;8.45;1.60;;;13.40;99.90;;;;;;6170395;22;88243;-73
2023/09/22 02:27:41;;;;;;;3.53;1.63;;;13.40;99.90;;;;;;6170484;22;88511;-74
2023/09/22 02:30:08;;;;;;;5.25;1.60;;;13.40;99.90;;;;;;6172061;22;87142;-74
2023/09/22 02:32:35;;;;;;;5.35;1.50;;;13.40;99.90;;;;;;6171249;22;87766;-74
2023/09/22 02:35:00;;;;;;;4.32;1.65;;;13.40;99.90;;;;;;6170312;22;90748;-74
2023/09/22 02:37:27;;;;;;;6.32;1.95;;;13.40;99.90;;;;;;6195445;22;89102;-74
2023/09/22 02:39:53;;;;;;;4.28;1.48;;;13.40;99.90;;;;;;6197030;22;87562;-73
2023/09/22 02:42:18;;;;;;;4.32;1.70;;;13.30;99.90;;;;;;6171093;22;88930;-73
2023/09/22 02:44:44;;;;;;;5.13;1.45;;;13.30;99.90;;;;;;6172165;22;87443;-73
2023/09/22 02:47:10;;;;;;;2.90;1.40;;;13.30;99.90;;;;;;6172176;22;87785;-73
2023/09/22 02:49:36;;;;;;;5.80;1.40;;;13.30;99.90;;;;;;6172250;22;87503;-73
2023/09/22 02:52:02;;;;;;;2.90;1.30;;;13.30;99.90;;;;;;6172391;22;87891;-73
2023/09/22 02:54:28;;;;;;;5.32;1.65;;;13.30;99.90;;;;;;6172274;22;88090;-73
2023/09/22 02:56:54;;;;;;;3.67;1.40;;;13.20;99.90;;;;;;6172910;22;88453;-74
2023/09/22 02:59:19;;;;;;;2.90;1.40;;;13.20;99.90;;;;;;6172584;22;86936;-73
2023/09/22 03:01:45;;;;;;;5.40;1.67;;;13.20;99.90;;;;;;6194808;22;90368;-74
2023/09/22 03:04:11;;;;;;;6.15;1.60;;;13.20;99.90;;;;;;6169990;22;88644;-74
2023/09/22 03:06:37;;;;;;;4.78;1.70;;;13.20;99.90;;;;;;6170609;22;88823;-74
2023/09/22 03:09:09;;;;;;;5.32;1.20;;;13.20;99.90;;;;;;6170624;22;88394;-74
2023/09/22 03:11:35;;;;;;;3.83;1.55;;;13.20;99.90;;;;;;6173778;22;87619;-74
2023/09/22 03:14:03;;;;;;;5.00;1.48;;;13.20;99.90;;;;;;6164661;22;88544;-74
2023/09/22 03:16:29;;;;;;;5.50;1.40;;;13.20;99.90;;;;;;6174286;22;87335;-73
2023/09/22 03:19:15;;;;;;;9.02;1.50;;;13.20;99.90;;;;;;6174339;22;88530;-73
2023/09/22 03:21:41;;;;;;;4.15;1.25;;;13.20;99.90;;;;;;6173646;22;91795;-73
2023/09/22 03:24:07;;;;;;;8.32;1.42;;;13.20;99.90;;;;;;6175162;22;87124;-73
2023/09/22 03:26:32;;;;;;;4.75;1.58;;;13.20;99.90;;;;;;6173860;22;87720;-73
2023/09/22 03:29:00;;;;;;;7.72;1.50;;;13.20;99.90;;;;;;6172859;22;87483;-73
2023/09/22 03:31:25;;;;;;;4.68;1.25;;;13.20;99.90;;;;;;6171949;22;88536;-73
2023/09/22 03:33:51;;;;;;;6.00;1.83;;;13.20;99.90;;;;;;6174237;22;87656;-73
2023/09/22 03:36:19;;;;;;;7.78;1.80;;;13.20;99.90;;;;;;6174568;22;87631;-73
2023/09/22 03:38:47;;;;;;;4.00;1.58;;;13.30;99.90;;;;;;6174102;22;87774;-73
2023/09/22 03:41:22;;;;;;;5.20;1.40;;;13.30;99.90;;;;;;6171842;22;90238;-73
2023/09/22 03:43:48;;;;;;;3.75;1.70;;;13.30;99.90;;;;;;6173201;22;88236;-73
2023/09/22 03:46:13;;;;;;;3.92;1.33;;;13.30;99.90;;;;;;6170734;22;91648;-73
2023/09/22 03:48:39;;;;;;;5.38;1.33;;;13.30;99.90;;;;;;6170611;22;87229;-73
2023/09/22 03:51:05;;;;;;;7.57;2.03;;;13.30;99.90;;;;;;6169257;22;87703;-73
2023/09/22 03:53:31;;;;;;;4.50;1.30;;;13.30;99.90;;;;;;6169711;22;87742;-73
2023/09/22 03:55:57;;;;;;;4.00;1.92;;;13.30;99.90;;;;;;6169582;22;88283;-73
2023/09/22 03:58:25;;;;;;;4.90;1.30;;;13.30;99.90;;;;;;6170599;22;87372;-73
2023/09/22 04:00:53;;;;;;;5.07;1.40;;;13.30;99.90;;;;;;6169902;22;90122;-73
2023/09/22 04:03:18;;;;;;;4.38;1.10;;;13.30;99.90;;;;;;6169480;22;88434;-73
2023/09/22 04:05:44;;;;;;;4.53;0.93;;;13.20;99.90;;;;;;6170271;22;87664;-73
2023/09/22 04:08:10;;;;;;;5.97;1.58;;;13.20;99.90;;;;;;6169251;22;87603;-73
2023/09/22 04:10:36;;;;;;;4.35;1.15;;;13.20;99.90;;;;;;6169168;22;87435;-73
2023/09/22 04:13:02;;;;;;;4.20;1.52;;;13.20;99.90;;;;;;6170599;22;87312;-73
2023/09/22 04:15:27;;;;;;;4.88;0.95;;;13.10;99.90;;;;;;6193364;22;91249;-73
2023/09/22 04:17:53;;;;;;;4.65;1.05;;;13.10;99.90;;;;;;6166274;22;87677;-73
2023/09/22 04:20:28;;;;;;;3.72;1.00;;;13.00;99.90;;;;;;6167576;22;88689;-74
2023/09/22 04:23:04;;;;;;;7.15;1.52;;;13.00;99.90;;;;;;6167116;22;91264;-73
2023/09/22 04:25:34;;;;;;;4.18;1.00;;;13.00;99.90;;;;;;6192326;22;91053;-73
2023/09/22 04:28:23;;;;;;;3.75;1.13;;;13.00;99.90;;;;;;6170295;22;87795;-74
2023/09/22 04:30:47;;;;;;;5.03;0.85;;;13.00;99.90;;;;;;6168307;22;92638;-74
2023/09/22 04:33:13;;;;;;;3.50;0.88;;;13.00;99.90;;;;;;6193379;22;91775;-73
2023/09/22 04:35:40;;;;;;;2.30;0.70;;;13.00;99.90;;;;;;6190922;22;91006;-74
2023/09/22 04:38:06;;;;;;;4.53;1.00;;;13.00;99.90;;;;;;6193188;22;87218;-73
2023/09/22 04:40:38;;;;;;;1.70;0.70;;;13.00;99.90;;;;;;6191845;22;90369;-73
2023/09/22 04:43:07;;;;;;;2.97;0.75;;;12.90;99.90;;;;;;6170654;22;87603;-73
2023/09/22 04:45:40;;;;;;;2.40;0.70;;;13.00;99.90;;;;;;6169741;22;92321;-73
2023/09/22 04:48:16;;;;;;;;;;;13.00;99.90;;;;;;6170070;22;87700;-73
2023/09/22 04:50:42;;;;;;;2.55;0.63;;;13.00;99.90;;;;;;6172117;22;88079;-73
2023/09/22 04:53:09;;;;;;;4.07;1.05;;;12.90;99.90;;;;;;6170479;22;87973;-73
2023/09/22 04:55:35;;;;;;;2.25;0.80;;;12.90;99.90;;;;;;6168194;22;91563;-74
2023/09/22 04:58:08;;;;;;;2.78;1.00;;;12.90;99.90;;;;;;6171152;22;87864;-73
2023/09/22 05:00:36;;;;;;;6.65;1.00;;;12.90;99.90;;;;;;6170927;22;89361;-73
2023/09/22 05:03:02;;;;;;;2.90;0.63;;;12.90;99.90;;;;;;6170654;22;87710;-74
2023/09/22 05:05:30;;;;;;;3.85;0.95;;;12.90;99.90;;;;;;6169943;22;88021;-73
2023/09/22 05:07:56;;;;;;;1.73;0.80;;;13.00;99.90;;;;;;6170665;22;87381;-73
2023/09/22 05:10:24;;;;;;;5.70;1.00;;;13.00;99.90;;;;;;6169018;22;88698;-73
2023/09/22 05:12:51;;;;;;;2.58;1.08;;;12.90;99.90;;;;;;6170515;22;88662;-73
2023/09/22 05:15:17;;;;;;;4.53;0.93;;;13.00;99.90;;;;;;6170877;22;88161;-73
2023/09/22 05:17:43;;;;;;;4.32;0.98;;;13.00;99.90;;;;;;6170308;22;87622;-73
2023/09/22 05:20:12;;;;;;;2.28;0.90;;;12.90;99.90;;;;;;6170259;22;87495;-73
2023/09/22 05:22:38;;;;;;;6.90;1.08;;;12.90;99.90;;;;;;6170401;22;87989;-72
2023/09/22 05:25:05;;;;;;;4.95;1.20;;;12.90;99.90;;;;;;6195220;22;89669;-73
2023/09/22 05:27:31;;;;;;;2.47;0.70;;;12.90;99.90;;;;;;6170081;22;87483;-73
2023/09/22 05:29:57;;;;;;;3.80;0.98;;;12.90;99.90;;;;;;6194393;22;90607;-73
2023/09/22 05:32:23;;;;;;;3.53;1.30;;;12.90;99.90;;;;;;6168669;22;88031;-72
2023/09/22 05:34:51;;;;;;;7.18;1.17;;;12.80;99.90;;;;;;6167779;22;88819;-73
2023/09/22 05:37:17;;;;;;;3.65;0.98;;;12.80;99.90;;;;;;6169270;22;88123;-73
2023/09/22 05:39:43;;;;;;;2.08;0.90;;;12.80;99.90;;;;;;6170258;22;87117;-73
2023/09/22 05:42:10;;;;;;;6.55;1.10;;;12.80;99.90;;;;;;6169747;22;87937;-73
2023/09/22 05:44:37;;;;;;;5.32;1.30;;;12.80;99.90;;;;;;6169599;22;87739;-73
2023/09/22 05:47:03;;;;;;;3.60;1.05;;;12.70;99.90;;;;;;6170260;22;87671;-73
2023/09/22 05:49:29;;;;;;;3.42;1.00;;;12.70;99.90;;;;;;6168971;22;90478;-73
2023/09/22 05:51:54;;;;;;;3.63;1.20;;;12.80;99.90;;;;;;6169622;22;87386;-73
2023/09/22 05:54:20;;;;;;;6.13;1.15;;;12.70;99.90;;;;;;6168473;22;87742;-73
2023/09/22 05:56:47;;;;;;;3.75;1.25;;;12.80;99.90;;;;;;6168853;22;87807;-73
2023/09/22 05:59:13;;;;;;;2.17;0.80;;;12.80;99.90;;;;;;6168561;22;88687;-73
2023/09/22 06:01:39;;;;;;;4.90;1.48;;;12.80;99.90;;;;;;6168076;22;88618;-73
2023/09/22 06:04:05;;;;;;;2.75;0.93;;;12.80;99.90;;;;;;6168688;22;90677;-73
2023/09/22 06:06:34;;;;;;;4.25;1.05;;;12.80;99.90;;;;;;6170411;22;87715;-73
2023/09/22 06:09:00;;;;;;;6.15;0.95;;;12.80;99.90;;;;;;6192842;22;89521;-73
2023/09/22 06:11:26;;;;;;;2.40;0.88;;;12.80;99.90;;;;;;6167037;22;91342;-73
2023/09/22 06:13:51;;;;;;;2.75;1.10;;;12.90;99.90;;;;;;6168638;22;88383;-73
2023/09/22 06:16:18;;;;;;;6.85;1.02;;;12.90;99.90;;;;;;6193334;22;87040;-73
2023/09/22 06:18:44;;;;;;;3.28;0.82;;;12.90;99.90;;;;;;6169332;22;87694;-73
2023/09/22 06:21:10;;;;;;;2.40;1.02;;;13.00;99.90;;;;;;6169834;22;88156;-73
2023/09/22 06:23:36;;;;;;;3.58;0.70;;;12.90;99.90;;;;;;6168338;22;93760;-73
2023/09/22 06:26:10;;;;;;;3.85;0.90;;;13.00;99.90;;;;;;6167641;22;88197;-73
2023/09/22 06:28:37;;;;;;;5.28;1.00;;;13.00;99.90;;;;;;6169116;22;88322;-73
2023/09/22 06:31:04;;;;;;;3.38;1.08;;;13.10;99.90;;;;;;6170736;22;87539;-74
2023/09/22 06:33:30;;;;;;;3.20;0.75;;;13.00;99.90;;;;;;6169585;22;87791;-73
2023/09/22 06:35:57;;;;;;;5.85;0.80;;;13.10;99.90;;;;;;6170099;22;87793;-73
2023/09/22 06:38:23;;;;;;;5.05;0.80;;;13.10;99.90;;;;;;6169492;22;87520;-73
2023/09/22 06:40:54;;;;;;;2.53;0.63;;;13.10;99.90;;;;;;6169742;22;87611;-74
2023/09/22 06:43:23;;;;;;;5.65;0.85;;;13.10;99.90;;;;;;6168709;22;88079;-73
2023/09/22 06:45:51;;;;;;;5.50;0.80;;;13.10;99.90;;;;;;6168954;22;87518;-73
2023/09/22 06:48:27;;;;;;;2.38;0.70;;;13.10;99.90;;;;;;6169881;22;88975;-73
2023/09/22 06:50:53;;;;;;;4.60;1.10;;;13.10;99.90;;;;;;6170099;22;88491;-73
2023/09/22 06:53:23;;;;;;;4.57;1.30;;;13.10;99.90;;;;;;6167993;22;87584;-74
2023/09/22 06:55:49;;;;;;;3.17;1.00;;;13.20;99.90;;;;;;6168103;22;88178;-73
2023/09/22 06:58:17;;;;;;;4.13;1.15;;;13.20;99.90;;;;;;6169029;22;87417;-74
2023/09/22 07:00:42;;;;;;;4.03;0.88;;;13.30;99.90;;;;;;6171262;22;87938;-73
2023/09/22 07:03:08;;;;;;;5.78;0.82;;;13.30;99.90;;;;;;6169057;22;87854;-73
2023/09/22 07:05:34;;;;;;;3.28;0.70;;;13.40;99.90;;;;;;6168039;22;86966;-73
2023/09/22 07:08:03;;;;;;;2.85;0.70;;;13.50;99.90;;;;;;6168051;22;87943;-74
2023/09/22 07:10:35;;;;;;;3.38;0.55;;;13.60;99.90;;;;;;6167592;22;88258;-74
2023/09/22 07:13:02;;;;;;;3.20;0.80;;;13.60;99.90;;;;;;6169351;22;88379;-74
2023/09/22 07:15:28;;;;;;;2.80;0.77;;;13.70;99.90;;;;;;6169285;22;87849;-74
2023/09/22 07:17:54;;;;;;;7.10;0.65;;;13.80;99.90;;;;;;6168038;22;91192;-76
2023/09/22 07:20:21;;;;;;;4.07;0.93;;;13.80;99.90;;;;;;6169725;22;88838;-74
2023/09/22 07:22:47;;;;;;;6.07;0.80;;;13.90;99.90;;;;;;6168484;22;88884;-73
2023/09/22 07:25:16;;;;;;;3.13;0.80;;;14.00;99.90;;;;;;6196277;22;87582;-79
2023/09/22 07:27:43;;;;;;;3.78;0.80;;;14.00;99.90;;;;;;6168544;22;87831;-77
2023/09/22 07:30:10;;;;;;;2.17;1.15;;;14.10;99.90;;;;;;6168699;22;87879;-76
2023/09/22 07:32:38;;;;;;;4.90;0.75;;;14.10;99.90;;;;;;6168803;22;89389;-77
2023/09/22 07:35:04;;;;;;;3.42;0.63;;;14.20;99.90;;;;;;6168846;22;87864;-76
2023/09/22 07:37:30;;;;;;;5.60;0.68;;;14.20;99.90;;;;;;6166696;22;89123;-77
2023/09/22 07:39:58;;;;;;;4.47;0.57;;;14.20;99.90;;;;;;6168097;22;89070;-76
2023/09/22 07:42:27;;;;;;;4.72;1.10;;;14.30;99.90;;;;;;6192324;22;91686;-76
2023/09/22 07:44:52;;;;;;;6.40;0.90;;;14.30;99.90;;;;;;6190393;22;87315;-76
2023/09/22 07:47:18;;;;;;;7.43;1.15;;;14.30;99.90;;;;;;6166064;22;88764;-77
2023/09/22 07:49:44;;;;;;;3.25;0.50;;;14.40;99.90;;;;;;6167557;22;88051;-76
2023/09/22 07:52:10;;;;;;;2.30;0.60;;;14.40;99.90;;;;;;6165516;22;89610;-77
2023/09/22 07:54:39;;;;;;;9.95;1.05;;;14.40;99.90;;;;;;6168485;22;86620;-76
2023/09/22 07:57:05;;;;;;;5.75;0.73;;;14.50;99.90;;;;;;6166080;22;90484;-76
2023/09/22 07:59:31;;;;;;;5.25;0.50;;;14.50;99.90;;;;;;6166868;22;91607;-75
2023/09/22 08:02:02;;;;;;;6.00;0.80;;;14.60;99.90;;;;;;6166415;22;91845;-76
2023/09/22 08:04:27;;;;;;;1.10;0.52;;;14.60;99.90;;;;;;6191664;22;87498;-77
2023/09/22 08:06:53;;;;;;;4.05;1.00;;;14.60;99.90;;;;;;6168713;22;87701;-76
2023/09/22 08:09:20;;;;;;;3.88;0.60;;;14.60;99.90;;;;;;6168631;22;88447;-77
2023/09/22 08:11:46;;;;;;;2.13;0.50;;;14.60;99.90;;;;;;6167194;22;88725;-76
2023/09/22 08:14:11;;;;;;;2.22;0.40;;;14.70;99.90;;;;;;6168677;22;87710;-76
2023/09/22 08:16:37;;;;;;;6.20;0.77;;;14.70;99.90;;;;;;6169113;22;87848;-75
2023/09/22 08:19:09;;;;;;;2.92;0.63;;;14.80;99.90;;;;;;6172397;22;88075;-79
2023/09/22 08:21:35;;;;;;;3.00;0.40;;;14.80;99.90;;;;;;6169759;22;92655;-76
2023/09/22 08:24:00;;;;;;;2.40;0.60;;;14.90;99.90;;;;;;6170193;22;87598;-76
2023/09/22 08:26:26;;;;;;;3.03;0.63;;;15.00;99.90;;;;;;6169205;22;88720;-76
2023/09/22 08:28:52;;;;;;;2.13;0.55;;;15.10;99.70;;;;;;6170198;22;88314;-76
2023/09/22 08:31:18;;;;;;;2.10;1.17;;;15.20;99.40;;;;;;6169287;22;88874;-76
2023/09/22 08:33:44;;;;;;;4.95;0.47;;;15.30;99.50;;;;;;6170635;22;87731;-76
2023/09/22 08:36:11;;;;;;;5.15;0.70;;;15.30;97.00;;;;;;6168878;22;90765;-76
2023/09/22 08:38:36;;;;;;;5.38;0.50;;;15.30;97.80;;;;;;6168268;22;92022;-76
2023/09/22 08:41:03;;;;;;;2.60;0.60;;;15.20;96.80;;;;;;6168892;22;90067;-77
2023/09/22 08:43:33;;;;;;;1.77;0.40;;;15.10;96.40;;;;;;6171702;22;86921;-75
2023/09/22 08:46:02;;;;;;;2.60;0.47;;;15.10;96.60;;;;;;6172007;22;87794;-77
2023/09/22 08:48:28;;;;;;;1.65;0.47;;;15.10;97.10;;;;;;6170777;22;88456;-76
2023/09/22 08:50:54;;;;;;;2.92;0.40;;;15.10;96.80;;;;;;6168651;22;88451;-75
2023/09/22 08:53:20;;;;;;;1.95;0.40;;;15.20;96.20;;;;;;6170716;22;87967;-76
2023/09/22 08:55:50;;;;;;;1.85;0.52;;;15.40;96.80;;;;;;6169633;22;88040;-76
2023/09/22 08:58:18;;;;;;;2.58;0.50;;;15.60;97.40;;;;;;6169019;22;88610;-75
2023/09/22 09:00:48;;;;;;;2.55;0.70;;;15.70;96.10;;;;;;6170106;22;88517;-75
2023/09/22 09:03:14;;;;;;;2.40;0.68;;;15.90;96.00;;;;;;6193971;22;87632;-76
2023/09/22 09:05:40;;;;;;;3.95;0.60;;;16.10;95.70;;;;;;6169215;22;87489;-75
2023/09/22 09:08:17;;;;;;;2.90;0.60;;;16.00;94.20;;;;;;6170362;22;88301;-77
2023/09/22 09:10:45;;;;;;;0.75;0.40;;;16.10;94.10;;;;;;6170046;22;87725;-76
2023/09/22 09:13:19;;;;;;;5.15;0.68;;;16.10;94.10;;;;;;6172830;22;87424;-80
2023/09/22 09:15:47;;;;;;;5.07;0.50;;;16.20;93.90;;;;;;6176293;22;89136;-79
2023/09/22 09:18:18;;;;;;;3.45;0.50;;;16.20;94.30;;;;;;6182650;22;88733;-79
2023/09/22 09:20:45;;;;;;;4.60;0.57;;;16.30;94.00;;;;;;6188110;22;87347;-79
2023/09/22 09:23:19;;;;;;;3.75;0.40;;;16.40;94.60;;;;;;6188378;22;87535;-79
2023/09/22 09:25:50;;;;;;;2.58;0.55;;;16.60;95.10;;;;;;6177772;22;87746;-76
2023/09/22 09:28:17;;;;;;;2.60;0.60;;;16.60;94.20;;;;;;6168427;22;90439;-79
2023/09/22 09:30:54;;;;;;;2.75;0.60;;;16.80;94.50;;;;;;6172838;22;88028;-77
2023/09/22 09:33:32;;;;;;;3.13;0.40;;;16.90;93.00;;;;;;6184870;22;86631;-79
2023/09/22 09:41:10;;;;;;;2.55;0.60;;;17.10;92.40;;;;;;6169669;22;88893;-80
2023/09/22 09:43:37;;;;;;;2.78;0.60;;;17.10;91.90;;;;;;6209710;22;87998;-80
2023/09/22 09:46:05;;;;;;;3.38;0.65;;;17.10;91.40;;;;;;6153516;22;87982;-78
2023/09/22 09:48:38;;;;;;;2.53;0.43;;;17.20;91.40;;;;;;6153122;22;91664;-79
2023/09/22 09:51:07;;;;;;;1.40;0.50;;;17.20;90.80;;;;;;6155955;22;91709;-78
2023/09/22 09:53:46;;;;;;;1.92;0.60;;;17.10;90.90;;;;;;6174373;22;87598;-80
2023/09/22 10:01:23;;;;;;;1.98;0.32;;;17.20;91.20;;;;;;6174446;22;88076;-79
2023/09/22 10:03:51;;;;;;;3.15;0.80;;;17.20;90.70;;;;;;6185905;22;87421;-81
2023/09/22 10:06:19;;;;;;;0.85;0.50;;;17.30;90.70;;;;;;6185081;22;88512;-80
2023/09/22 10:08:44;;;;;;;3.03;0.88;;;17.30;90.70;;;;;;6187274;22;87681;-80
2023/09/22 10:11:13;;;;;;;3.03;0.75;;;17.40;90.80;;;;;;6184137;22;88410;-78
2023/09/22 10:13:38;;;;;;;3.15;0.50;;;17.40;89.20;;;;;;6195407;22;87357;-79
2023/09/22 10:16:06;;;;;;;3.10;0.40;;;17.40;90.30;;;;;;6186880;22;88861;-79
2023/09/22 10:18:50;;;;;;;2.88;0.40;;;17.40;89.40;;;;;;6193148;22;91603;-78
2023/09/22 10:21:33;;;;;;;1.48;0.40;;;17.40;89.30;;;;;;6163915;22;89170;-77
2023/09/22 10:24:17;;;;;;;2.20;0.40;;;17.60;89.40;;;;;;6201096;22;86805;-78
2023/09/22 10:26:59;;;;;;;0.68;0.38;;;17.80;89.80;;;;;;6185297;22;87490;-77
2023/09/22 10:29:36;;;;;;;3.97;0.70;;;17.90;88.10;;;;;;6176398;22;88246;-79
2023/09/22 10:32:26;;;;;;;3.58;0.40;;;18.10;89.30;;;;;;6177906;22;88579;-78
2023/09/22 10:35:09;;;;;;;3.50;0.60;;;18.20;88.70;;;;;;6175347;22;87932;-77
2023/09/22 10:37:36;;;;;;;1.48;0.40;;;18.30;88.20;;;;;;6177407;22;88383;-77
2023/09/22 10:40:15;;;;;;;1.48;0.50;;;18.30;87.70;;;;;;6177496;22;88298;-77
2023/09/22 10:42:43;;;;;;;1.63;0.52;;;18.30;86.10;;;;;;6200695;22;95461;-79
2023/09/22 10:45:09;;;;;;;1.73;0.55;;;18.30;87.00;;;;;;6176236;22;87517;-78
2023/09/22 10:47:40;;;;;;;4.00;0.60;;;18.40;85.20;;;;;;6175768;22;88808;-79
2023/09/22 10:50:24;;;;;;;2.00;0.40;;;18.50;83.70;;;;;;6178592;22;90838;-78
2023/09/22 10:52:54;;;;;;;3.28;0.70;;;18.50;86.00;;;;;;6179508;22;87737;-80
2023/09/22 10:55:29;;;;;;;3.30;0.40;;;18.50;82.80;;;;;;6185220;22;87583;-78
2023/09/22 10:57:56;;;;;;;1.45;0.50;;;18.60;86.30;;;;;;6178671;22;88512;-79
2023/09/22 11:00:25;;;;;;;2.72;0.60;;;18.70;82.40;;;;;;6178722;22;88289;-78
2023/09/22 11:02:50;;;;;;;2.25;0.57;;;18.90;82.30;;;;;;6190358;22;91133;-78
2023/09/22 11:05:17;;;;;;;1.83;0.70;;;19.00;83.50;;;;;;6185323;22;87496;-78
2023/09/22 11:07:46;;;;;;;1.65;0.50;;;19.20;85.50;;;;;;6180836;22;90518;-77
2023/09/22 11:10:22;;;;;;;2.25;0.60;;;19.30;79.30;;;;;;6181403;22;87958;-79
2023/09/22 11:12:52;;;;;;;1.33;0.50;;;19.40;80.90;;;;;;6186297;22;89863;-78
2023/09/22 11:15:19;;;;;;;3.80;0.80;;;19.50;81.80;;;;;;6183897;22;86291;-79
2023/09/22 11:17:48;;;;;;;2.10;0.50;;;19.60;78.90;;;;;;6186527;22;87455;-79
2023/09/22 11:20:18;;;;;;;1.58;0.70;;;19.80;81.80;;;;;;6187132;22;88941;-78
2023/09/22 11:22:44;;;;;;;1.05;0.40;;;20.00;79.50;;;;;;6184979;22;89197;-78
2023/09/22 11:25:10;;;;;;;2.13;0.50;;;20.00;81.10;;;;;;6181292;22;86979;-77
2023/09/22 11:27:46;;;;;;;2.92;0.88;;;20.00;78.00;;;;;;6183638;22;87867;-80
2023/09/22 11:30:15;;;;;;;3.13;0.93;;;19.90;78.20;;;;;;6181936;22;90072;-77
2023/09/22 11:32:43;;;;;;;1.83;0.40;;;19.80;77.60;;;;;;6191796;22;87256;-78
2023/09/22 11:35:09;;;;;;;2.13;0.50;;;19.80;79.60;;;;;;6199349;22;87359;-78
2023/09/22 11:37:35;;;;;;;4.30;0.95;;;19.80;78.80;;;;;;6183666;22;87188;-78
2023/09/22 11:40:14;;;;;;;5.68;0.82;;;19.90;80.10;;;;;;6184201;22;86825;-79
2023/09/22 11:42:46;;;;;;;4.15;0.88;;;19.90;77.20;;;;;;6182717;22;92006;-79
2023/09/22 11:45:22;;;;;;;1.67;0.35;;;20.00;76.60;;;;;;6183881;22;87668;-80
2023/09/22 11:47:49;;;;;;;2.55;0.40;;;19.90;77.50;;;;;;6179369;22;89636;-77
2023/09/22 11:50:24;;;;;;;2.45;0.52;;;19.80;75.50;;;;;;6183839;22;88808;-79
2023/09/22 11:52:50;;;;;;;2.15;0.73;;;19.80;74.50;;;;;;6185200;22;87767;-79
2023/09/22 11:55:15;;;;;;;1.40;0.50;;;19.70;76.10;;;;;;6188217;22;87335;-78
2023/09/22 11:57:42;;;;;;;2.50;0.40;;;19.70;76.40;;;;;;6181285;22;87480;-80
2023/09/22 12:00:09;;;;;;;3.75;0.52;;;19.70;77.10;;;;;;6180284;22;88943;-79
2023/09/22 12:02:35;;;;;;;0.90;0.40;;;19.60;77.80;;;;;;6181030;22;88858;-76
2023/09/22 12:05:03;;;;;;;2.83;0.50;;;19.60;77.40;;;;;;6181362;22;87445;-78
2023/09/22 12:07:29;;;;;;;1.13;0.40;;;19.60;78.40;;;;;;6177914;22;87949;-79
2023/09/22 12:09:55;;;;;;;3.80;0.70;;;19.80;79.20;;;;;;6179082;22;87329;-78
2023/09/22 12:12:20;;;;;;;2.30;0.65;;;19.90;76.30;;;;;;6178836;22;88670;-78
2023/09/22 12:14:46;;;;;;;2.05;0.50;;;19.90;79.20;;;;;;6178673;22;92951;-79
2023/09/22 12:17:11;;;;;;;2.80;0.40;;;19.90;79.50;;;;;;6180653;22;87703;-79
2023/09/22 12:19:37;;;;;;;2.13;0.47;;;20.10;79.70;;;;;;6180832;22;88212;-78
2023/09/22 12:22:05;;;;;;;1.40;0.50;;;20.30;79.80;;;;;;6180191;22;89225;-78
2023/09/22 12:24:31;;;;;;;3.42;0.43;;;20.50;79.20;;;;;;6186580;22;87682;-80
2023/09/22 12:26:56;;;;;;;5.22;0.60;;;20.60;75.90;;;;;;6179473;22;87805;-78
2023/09/22 12:29:23;;;;;;;4.15;0.88;;;20.60;76.50;;;;;;6176567;22;87839;-77
2023/09/22 12:31:49;;;;;;;1.13;0.40;;;20.50;73.70;;;;;;6177838;22;87827;-78
2023/09/22 12:34:17;;;;;;;1.58;0.50;;;20.30;73.60;;;;;;6179349;22;87897;-79
2023/09/22 12:36:43;;;;;;;2.90;0.60;;;20.20;74.30;;;;;;6201999;22;91496;-77
2023/09/22 12:39:10;;;;;;;2.45;0.40;;;20.10;74.10;;;;;;6177110;22;89184;-77
2023/09/22 12:41:36;;;;;;;3.05;0.80;;;19.90;75.70;;;;;;6175243;22;89091;-78
2023/09/22 12:44:01;;;;;;;4.60;0.90;;;19.70;75.60;;;;;;6178424;22;87741;-78
2023/09/22 12:46:27;;;;;;;1.35;0.40;;;19.50;78.50;;;;;;6175313;22;90705;-78
2023/09/22 12:48:53;;;;;;;2.72;0.50;;;19.40;77.80;;;;;;6178077;22;87616;-78
2023/09/22 12:51:18;;;;;;;6.03;0.93;;;19.30;78.10;;;;;;6175021;22;90929;-78
2023/09/22 12:53:44;;;;;;;2.55;0.40;;;19.20;79.80;;;;;;6182430;22;86804;-78
2023/09/22 12:56:10;;;;;;;3.97;0.60;;;19.10;79.80;;;;;;6177070;22;87727;-78
2023/09/22 12:58:35;;;;;;;3.28;0.50;;;18.90;82.80;;;;;;6176793;22;91485;-78
2023/09/22 13:01:04;;;;;;;2.72;0.70;;;18.80;83.10;;;;;;6178445;22;88385;-78
2023/09/22 13:03:32;;;;;;;3.75;0.90;;;18.70;84.70;;;;;;6177243;22;87373;-79